Time;durP1;ratioP1;P1;durP2;ratioP2;P2;SDS_P1;SDS_P2;PMS_P1;PMS_P2;Temp;Humidity;BMP_temperature;BMP_pressure;BME280_temperature;BME280_humidity;BME280_pressure;Samples;Min_cycle;Max_cycle;Signal;HPM_P1;HPM_P2
2022/03/30 00:01:17;;;;;;;29.40;19.20;;;9.10;99.90;;;;;;5054328;28;20184;-40
2022/03/30 00:03:42;;;;;;;33.47;18.37;;;9.10;99.90;;;;;;5054406;28;20203;-40
2022/03/30 00:06:08;;;;;;;31.90;19.17;;;9.00;99.90;;;;;;5054373;28;20204;-40
2022/03/30 00:08:34;;;;;;;33.07;18.87;;;9.10;99.90;;;;;;5054293;28;20176;-40
2022/03/30 00:11:00;;;;;;;34.23;19.93;;;9.00;99.90;;;;;;5055230;28;20649;-38
2022/03/30 00:13:27;;;;;;;34.73;18.73;;;9.00;99.90;;;;;;5054382;28;20186;-39
2022/03/30 00:15:52;;;;;;;33.10;20.00;;;9.00;99.90;;;;;;5054406;28;20196;-38
2022/03/30 00:18:18;;;;;;;30.97;18.97;;;9.00;99.90;;;;;;5054202;28;20691;-40
2022/03/30 00:20:45;;;;;;;32.40;19.43;;;9.00;99.90;;;;;;5054126;28;20251;-41
2022/03/30 00:23:11;;;;;;;35.30;20.27;;;8.90;99.90;;;;;;5054132;28;20175;-39
2022/03/30 00:25:37;;;;;;;34.80;20.23;;;8.90;99.90;;;;;;5053903;28;20201;-40
2022/03/30 00:28:03;;;;;;;34.70;19.43;;;8.90;99.90;;;;;;5054296;28;20263;-41
2022/03/30 00:30:29;;;;;;;33.20;20.37;;;8.90;99.90;;;;;;5054039;28;20180;-42
2022/03/30 00:32:54;;;;;;;31.30;20.13;;;8.90;99.90;;;;;;5053780;28;20645;-40
2022/03/30 00:35:20;;;;;;;32.27;20.30;;;8.90;99.90;;;;;;5053956;28;20212;-39
2022/03/30 00:37:46;;;;;;;33.13;19.67;;;8.90;99.90;;;;;;5054106;28;20305;-42
2022/03/30 00:40:14;;;;;;;34.20;20.00;;;8.90;99.90;;;;;;5053403;28;20259;-39
2022/03/30 00:42:39;;;;;;;33.63;19.97;;;8.80;99.90;;;;;;5053872;28;20195;-41
2022/03/30 00:45:12;;;;;;;31.43;19.37;;;8.80;99.90;;;;;;5054254;28;20196;-39
2022/03/30 00:47:38;;;;;;;34.87;18.93;;;8.80;99.90;;;;;;5054014;28;20184;-41
2022/03/30 00:50:05;;;;;;;31.80;18.90;;;8.80;99.90;;;;;;5054950;28;20211;-41
2022/03/30 00:52:31;;;;;;;34.77;18.13;;;8.80;99.90;;;;;;5055344;28;20211;-41
2022/03/30 00:54:58;;;;;;;35.67;19.70;;;8.70;99.90;;;;;;5055240;28;20567;-40
2022/03/30 00:57:24;;;;;;;33.27;18.63;;;8.70;99.90;;;;;;5054609;28;20191;-41
2022/03/30 00:59:50;;;;;;;34.57;19.47;;;8.70;99.90;;;;;;5054043;28;20176;-41
2022/03/30 01:02:17;;;;;;;30.97;18.27;;;8.70;99.90;;;;;;5053773;28;20234;-39
2022/03/30 01:04:46;;;;;;;33.63;19.47;;;8.70;99.90;;;;;;5052836;28;20581;-40
2022/03/30 01:07:13;;;;;;;34.83;19.43;;;8.70;99.90;;;;;;5053496;28;20295;-41
2022/03/30 01:09:39;;;;;;;32.30;18.80;;;8.70;99.90;;;;;;5053317;28;20219;-40
2022/03/30 01:12:07;;;;;;;34.17;19.23;;;8.60;99.90;;;;;;5053783;28;20683;-40
2022/03/30 01:14:33;;;;;;;36.10;18.97;;;8.60;99.90;;;;;;5053533;28;20188;-41
2022/03/30 01:16:59;;;;;;;33.30;20.03;;;8.60;99.90;;;;;;5053426;28;20208;-41
2022/03/30 01:19:29;;;;;;;36.93;19.83;;;8.50;99.90;;;;;;5053225;28;20180;-41
2022/03/30 01:21:55;;;;;;;32.33;18.60;;;8.50;99.90;;;;;;5053540;28;20177;-41
2022/03/30 01:24:21;;;;;;;36.03;19.20;;;8.40;99.90;;;;;;5053785;28;20188;-40
2022/03/30 01:26:46;;;;;;;31.43;19.43;;;8.40;99.90;;;;;;5053296;28;20580;-40
2022/03/30 01:34:42;;;;;;;32.60;18.30;;;8.30;99.90;;;;;;5053353;28;20168;-40
2022/03/30 01:37:10;;;;;;;32.40;19.07;;;8.30;99.90;;;;;;5053396;28;20225;-39
2022/03/30 01:39:35;;;;;;;32.57;19.27;;;8.20;99.90;;;;;;5053220;28;20267;-40
2022/03/30 01:42:01;;;;;;;33.40;18.63;;;8.20;99.90;;;;;;5052914;28;20231;-40
2022/03/30 01:44:27;;;;;;;35.60;19.40;;;8.20;99.90;;;;;;5053187;28;20188;-40
2022/03/30 01:46:53;;;;;;;38.70;21.23;;;8.20;99.90;;;;;;5052719;28;20223;-41
2022/03/30 01:49:21;;;;;;;33.60;19.37;;;8.20;99.90;;;;;;5052865;28;20180;-40
2022/03/30 01:51:54;;;;;;;28.73;18.40;;;8.20;99.90;;;;;;5056102;28;20703;-41
2022/03/30 01:54:22;;;;;;;31.90;17.93;;;8.10;99.90;;;;;;5056826;28;20157;-38
2022/03/30 01:56:50;;;;;;;36.03;18.47;;;8.10;99.90;;;;;;5056690;28;20200;-40
2022/03/30 01:59:16;;;;;;;29.83;17.70;;;8.10;99.90;;;;;;5056970;28;20168;-40
2022/03/30 02:01:42;;;;;;;31.63;19.67;;;8.10;99.90;;;;;;5056899;28;20172;-41
2022/03/30 02:04:09;;;;;;;29.90;17.97;;;8.10;99.90;;;;;;5056597;28;20222;-39
2022/03/30 02:06:36;;;;;;;33.93;18.07;;;8.10;99.90;;;;;;5056455;28;20234;-39
2022/03/30 02:09:02;;;;;;;34.73;19.60;;;8.10;99.90;;;;;;5056520;28;20176;-40
2022/03/30 02:11:28;;;;;;;30.60;18.07;;;8.10;99.90;;;;;;5056430;28;20260;-40
2022/03/30 02:13:55;;;;;;;38.10;18.70;;;8.10;99.90;;;;;;5056688;28;20184;-39
2022/03/30 02:16:21;;;;;;;36.33;18.23;;;8.10;99.90;;;;;;5056560;28;20200;-40
2022/03/30 02:18:46;;;;;;;34.10;18.60;;;8.10;99.90;;;;;;5056401;28;20234;-41
2022/03/30 02:21:13;;;;;;;32.20;19.67;;;8.10;99.90;;;;;;5055026;28;20192;-40
2022/03/30 02:23:39;;;;;;;29.87;18.97;;;8.10;99.90;;;;;;5056337;28;20252;-40
2022/03/30 02:26:05;;;;;;;33.33;17.73;;;8.00;99.90;;;;;;5056108;28;20254;-40
2022/03/30 02:28:32;;;;;;;33.10;17.83;;;8.00;99.90;;;;;;5056200;28;20246;-40
2022/03/30 02:31:02;;;;;;;32.57;17.43;;;8.00;99.90;;;;;;5056033;28;20595;-40
2022/03/30 02:33:28;;;;;;;33.20;18.57;;;7.90;99.90;;;;;;5056404;28;20172;-40
2022/03/30 02:35:53;;;;;;;29.80;17.87;;;7.90;99.90;;;;;;5055952;28;20700;-40
2022/03/30 02:38:19;;;;;;;32.33;17.53;;;7.90;99.90;;;;;;5055998;28;20180;-40
2022/03/30 02:40:46;;;;;;;33.80;18.50;;;7.90;99.90;;;;;;5056157;28;20175;-39
2022/03/30 02:43:11;;;;;;;32.20;17.57;;;7.90;99.90;;;;;;5056167;28;20188;-42
2022/03/30 02:45:38;;;;;;;37.17;19.13;;;7.90;99.90;;;;;;5055701;28;20212;-38
2022/03/30 02:48:19;;;;;;;31.53;17.13;;;7.80;99.90;;;;;;5055835;28;20357;-38
2022/03/30 02:50:50;;;;;;;35.87;19.33;;;7.80;99.90;;;;;;5056075;28;20215;-39
2022/03/30 02:53:16;;;;;;;29.73;18.47;;;7.80;99.90;;;;;;5055757;28;20161;-40
2022/03/30 02:55:42;;;;;;;31.77;18.33;;;7.70;99.90;;;;;;5054388;28;20623;-40
2022/03/30 02:58:09;;;;;;;29.53;17.63;;;7.70;99.90;;;;;;5055639;28;20184;-41
2022/03/30 03:00:35;;;;;;;34.80;18.10;;;7.70;99.90;;;;;;5055797;28;20176;-40
2022/03/30 03:03:02;;;;;;;33.60;19.10;;;7.70;99.90;;;;;;5054792;28;20609;-39
2022/03/30 03:05:32;;;;;;;34.33;18.93;;;7.60;99.90;;;;;;5055430;28;20200;-39
2022/03/30 03:08:01;;;;;;;30.67;18.93;;;7.60;99.90;;;;;;5055660;28;20200;-40
2022/03/30 03:10:28;;;;;;;29.83;18.83;;;7.50;99.90;;;;;;5055446;28;20554;-40
2022/03/30 03:12:54;;;;;;;36.00;17.70;;;7.50;99.90;;;;;;5055252;28;20784;-40
2022/03/30 03:15:22;;;;;;;36.37;17.97;;;7.50;99.90;;;;;;5055737;28;20287;-41
2022/03/30 03:17:48;;;;;;;35.27;18.30;;;7.40;99.90;;;;;;5038502;28;20188;-41
2022/03/30 03:20:14;;;;;;;31.03;18.20;;;7.40;99.90;;;;;;5055245;28;20224;-41
2022/03/30 03:22:40;;;;;;;29.00;16.93;;;7.40;99.90;;;;;;5055201;28;20234;-40
2022/03/30 03:25:07;;;;;;;30.47;18.03;;;7.40;99.90;;;;;;5055062;28;20185;-41
2022/03/30 03:27:33;;;;;;;30.30;17.30;;;7.30;99.90;;;;;;5055028;28;20219;-41
2022/03/30 03:29:59;;;;;;;41.90;18.90;;;7.30;99.90;;;;;;5055287;28;20610;-41
2022/03/30 03:32:25;;;;;;;35.77;18.90;;;7.30;99.90;;;;;;5054980;28;20212;-41
2022/03/30 03:34:50;;;;;;;41.03;17.73;;;7.30;99.90;;;;;;5054918;28;20700;-42
2022/03/30 03:37:16;;;;;;;34.10;18.50;;;7.30;99.90;;;;;;5054831;28;20204;-41
2022/03/30 03:39:43;;;;;;;34.17;17.17;;;7.30;99.90;;;;;;5055228;28;20180;-40
2022/03/30 03:42:09;;;;;;;29.00;17.97;;;7.20;99.90;;;;;;5055150;28;20176;-41
2022/03/30 03:44:35;;;;;;;34.63;16.53;;;7.20;99.90;;;;;;5054969;28;20184;-41
2022/03/30 03:47:01;;;;;;;36.93;19.67;;;7.20;99.90;;;;;;5055135;28;20274;-41
2022/03/30 03:49:27;;;;;;;35.87;16.93;;;7.20;99.90;;;;;;5054880;28;20210;-40
2022/03/30 03:51:53;;;;;;;36.30;18.97;;;7.10;99.90;;;;;;5054777;28;20290;-41
2022/03/30 03:54:19;;;;;;;30.83;16.80;;;7.20;99.90;;;;;;5053497;28;20618;-41
2022/03/30 03:56:44;;;;;;;31.53;15.30;;;7.10;99.90;;;;;;5054775;28;20256;-41
2022/03/30 03:59:11;;;;;;;35.13;18.73;;;7.10;99.90;;;;;;5054807;28;20311;-41
2022/03/30 04:01:37;;;;;;;32.80;17.47;;;7.10;99.90;;;;;;5054475;28;20637;-38
2022/03/30 04:04:03;;;;;;;31.83;18.27;;;7.10;99.90;;;;;;5054421;28;20191;-39
2022/03/30 04:06:29;;;;;;;31.33;16.80;;;7.10;99.90;;;;;;5054529;28;20208;-41
2022/03/30 04:08:55;;;;;;;39.93;18.53;;;7.10;99.90;;;;;;5054288;28;20180;-40
2022/03/30 04:11:21;;;;;;;39.20;21.00;;;7.00;99.90;;;;;;5054202;28;20215;-39
2022/03/30 04:13:46;;;;;;;37.33;20.33;;;7.10;99.90;;;;;;5053473;28;20226;-41
2022/03/30 04:16:15;;;;;;;35.23;19.30;;;7.00;99.90;;;;;;5054068;28;20210;-42
2022/03/30 04:18:41;;;;;;;32.07;17.90;;;7.00;99.90;;;;;;5054094;28;20193;-41
2022/03/30 04:21:06;;;;;;;34.77;17.47;;;7.00;99.90;;;;;;5054023;28;20219;-41
2022/03/30 04:23:32;;;;;;;37.97;18.90;;;7.00;99.90;;;;;;5054003;28;20186;-41
2022/03/30 04:25:57;;;;;;;35.47;20.13;;;7.00;99.90;;;;;;5053874;28;20196;-40
2022/03/30 04:28:23;;;;;;;39.43;20.20;;;7.00;99.90;;;;;;5054250;28;20638;-42
2022/03/30 04:30:48;;;;;;;45.27;24.30;;;7.00;99.90;;;;;;5054123;28;20187;-41
2022/03/30 04:33:14;;;;;;;38.17;21.40;;;7.00;99.90;;;;;;5054707;28;20225;-39
2022/03/30 04:35:40;;;;;;;36.47;18.90;;;7.00;99.90;;;;;;5056149;28;20197;-39
2022/03/30 04:38:08;;;;;;;37.97;21.23;;;6.90;99.90;;;;;;5056394;28;20174;-40
2022/03/30 04:40:34;;;;;;;32.27;19.17;;;6.90;99.90;;;;;;5054312;28;20632;-40
2022/03/30 04:43:00;;;;;;;32.50;19.47;;;6.90;99.90;;;;;;5054328;28;20211;-40
2022/03/30 04:45:26;;;;;;;38.63;18.83;;;6.80;99.90;;;;;;5053665;28;20697;-39
2022/03/30 04:47:55;;;;;;;42.13;21.67;;;6.80;99.90;;;;;;5053999;28;20567;-38
2022/03/30 04:50:22;;;;;;;37.67;18.60;;;6.80;99.90;;;;;;5053569;28;20190;-37
2022/03/30 04:52:48;;;;;;;43.60;19.97;;;6.80;99.90;;;;;;5053571;28;20615;-39
2022/03/30 04:55:14;;;;;;;34.93;19.47;;;6.70;99.90;;;;;;5053466;28;20195;-41
2022/03/30 04:57:40;;;;;;;38.17;20.43;;;6.70;99.90;;;;;;5053394;28;20258;-39
2022/03/30 05:00:11;;;;;;;33.60;18.27;;;6.70;99.90;;;;;;5053446;28;20211;-40
2022/03/30 05:02:38;;;;;;;36.03;19.33;;;6.70;99.90;;;;;;5053382;28;20206;-42
2022/03/30 05:05:05;;;;;;;38.57;20.10;;;6.60;99.90;;;;;;5053256;28;20660;-40
2022/03/30 05:07:31;;;;;;;37.63;22.10;;;6.60;99.90;;;;;;5054056;28;20206;-39
2022/03/30 05:10:00;;;;;;;41.23;20.20;;;6.50;99.90;;;;;;5053263;28;20705;-40
2022/03/30 05:12:26;;;;;;;36.63;21.80;;;6.50;99.90;;;;;;5053134;28;20258;-40
2022/03/30 05:14:52;;;;;;;36.73;22.80;;;6.40;99.90;;;;;;5053431;28;20177;-40
2022/03/30 05:17:18;;;;;;;34.00;19.43;;;6.40;99.90;;;;;;5053053;28;20207;-39
2022/03/30 05:19:46;;;;;;;45.73;23.40;;;6.30;99.90;;;;;;5053622;28;20175;-41
2022/03/30 05:22:11;;;;;;;39.10;20.00;;;6.30;99.90;;;;;;5053346;28;20184;-40
2022/03/30 05:24:37;;;;;;;36.77;18.67;;;6.30;99.90;;;;;;5053146;28;20183;-39
2022/03/30 05:27:03;;;;;;;37.07;19.10;;;6.20;99.90;;;;;;5052929;28;20214;-40
2022/03/30 05:29:30;;;;;;;38.70;18.90;;;6.20;99.90;;;;;;5053138;28;20653;-39
2022/03/30 05:31:56;;;;;;;36.00;18.03;;;6.10;99.90;;;;;;5053216;28;20218;-39
2022/03/30 05:34:22;;;;;;;31.17;17.80;;;6.10;99.90;;;;;;5053057;28;20240;-40
2022/03/30 05:36:48;;;;;;;36.07;18.53;;;6.10;99.90;;;;;;5053193;28;20281;-41
2022/03/30 05:39:13;;;;;;;33.20;18.33;;;6.00;99.90;;;;;;5053024;28;20220;-40
2022/03/30 05:41:39;;;;;;;38.47;19.30;;;6.00;99.90;;;;;;5052999;28;20186;-41
2022/03/30 05:44:05;;;;;;;36.97;18.00;;;5.90;99.90;;;;;;5052913;28;20184;-41
2022/03/30 05:46:30;;;;;;;37.03;19.67;;;5.90;99.90;;;;;;5052862;28;20296;-41
2022/03/30 05:48:56;;;;;;;39.23;18.43;;;5.90;99.90;;;;;;5053416;28;20230;-40
2022/03/30 05:51:21;;;;;;;31.40;17.30;;;5.90;99.90;;;;;;5052828;28;20662;-41
2022/03/30 05:53:47;;;;;;;30.63;17.60;;;5.90;99.90;;;;;;5052854;28;20180;-41
2022/03/30 05:56:14;;;;;;;35.53;18.27;;;5.90;99.90;;;;;;5051539;28;20297;-40
2022/03/30 05:58:40;;;;;;;38.77;18.63;;;5.90;99.90;;;;;;5053103;28;20178;-39
2022/03/30 06:01:06;;;;;;;36.87;19.07;;;5.90;99.90;;;;;;5052803;28;20182;-41
2022/03/30 06:03:37;;;;;;;40.20;19.67;;;5.90;99.90;;;;;;5052964;28;20168;-41
2022/03/30 06:06:04;;;;;;;34.10;17.93;;;6.00;99.90;;;;;;5052969;28;20211;-40
2022/03/30 06:08:30;;;;;;;35.60;19.40;;;6.00;99.90;;;;;;5052900;28;20184;-39
2022/03/30 06:10:56;;;;;;;36.43;19.23;;;6.00;99.90;;;;;;5053181;28;20172;-39
2022/03/30 06:13:21;;;;;;;32.43;19.53;;;6.00;99.90;;;;;;5052709;28;20671;-39
2022/03/30 06:15:47;;;;;;;33.07;18.70;;;6.00;99.90;;;;;;5052795;28;20559;-40
2022/03/30 06:18:14;;;;;;;40.13;19.77;;;6.00;99.90;;;;;;5052637;28;20183;-41
2022/03/30 06:20:41;;;;;;;44.03;18.77;;;6.10;99.90;;;;;;5052650;28;20174;-39
2022/03/30 06:23:07;;;;;;;36.00;18.40;;;6.10;99.90;;;;;;5052534;28;20184;-39
2022/03/30 06:25:33;;;;;;;34.67;17.77;;;6.10;99.90;;;;;;5052474;28;20234;-40
2022/03/30 06:27:59;;;;;;;39.47;19.83;;;6.10;99.90;;;;;;5052581;28;20177;-41
2022/03/30 06:30:25;;;;;;;35.70;18.73;;;6.00;99.90;;;;;;5052528;28;20586;-40
2022/03/30 06:32:51;;;;;;;37.70;19.60;;;6.10;99.90;;;;;;5052613;28;20563;-39
2022/03/30 06:35:20;;;;;;;38.17;20.20;;;6.00;99.90;;;;;;5052669;28;20195;-39
2022/03/30 06:37:47;;;;;;;36.37;18.30;;;6.00;99.90;;;;;;5054236;28;20228;-40
2022/03/30 06:40:14;;;;;;;34.83;19.13;;;6.00;99.90;;;;;;5056202;28;20200;-39
2022/03/30 06:42:41;;;;;;;37.77;20.07;;;6.00;99.90;;;;;;5055997;28;20173;-39
2022/03/30 06:45:08;;;;;;;40.10;19.07;;;6.00;99.90;;;;;;5055955;28;20761;-38
2022/03/30 06:47:34;;;;;;;38.33;19.73;;;6.00;99.90;;;;;;5055882;28;20181;-41
2022/03/30 06:49:59;;;;;;;40.17;20.10;;;6.00;99.90;;;;;;5055793;28;20270;-40
2022/03/30 06:52:26;;;;;;;35.77;18.30;;;6.10;99.90;;;;;;5055680;28;20293;-39
2022/03/30 06:54:52;;;;;;;39.07;19.33;;;6.10;99.90;;;;;;5055747;28;20172;-41
2022/03/30 06:57:20;;;;;;;40.37;18.73;;;6.20;99.90;;;;;;5055906;28;20696;-42
2022/03/30 06:59:46;;;;;;;39.07;19.37;;;6.30;99.90;;;;;;5055630;28;20232;-40
2022/03/30 07:02:11;;;;;;;36.47;19.20;;;6.30;99.90;;;;;;5055905;28;20269;-41
2022/03/30 07:04:38;;;;;;;41.03;19.73;;;6.30;99.90;;;;;;5055568;28;20186;-39
2022/03/30 07:12:33;;;;;;;37.30;18.93;;;6.40;99.90;;;;;;5054793;28;20200;-40
2022/03/30 07:15:00;;;;;;;45.67;19.87;;;6.40;99.90;;;;;;5055420;28;20258;-39
2022/03/30 07:17:26;;;;;;;33.37;18.17;;;6.50;99.90;;;;;;5055327;28;20176;-41
2022/03/30 07:19:52;;;;;;;41.30;20.23;;;6.50;99.90;;;;;;5055561;28;20265;-38
2022/03/30 07:22:18;;;;;;;37.90;19.07;;;6.60;99.90;;;;;;5055509;28;20218;-40
2022/03/30 07:24:44;;;;;;;38.70;20.93;;;6.60;99.90;;;;;;5054305;28;20217;-40
2022/03/30 07:27:09;;;;;;;36.57;19.80;;;6.70;99.90;;;;;;5055048;28;20206;-41
2022/03/30 07:29:35;;;;;;;30.97;16.07;;;6.70;99.90;;;;;;5055120;28;20189;-41
2022/03/30 07:32:01;;;;;;;36.87;19.60;;;6.80;99.90;;;;;;5054973;28;20260;-41
2022/03/30 07:34:26;;;;;;;41.40;20.07;;;6.80;99.90;;;;;;5055281;28;20301;-40
2022/03/30 07:36:52;;;;;;;41.07;20.67;;;6.90;99.90;;;;;;5055183;28;20246;-39
2022/03/30 07:39:17;;;;;;;40.93;19.83;;;7.00;99.90;;;;;;5055112;28;20244;-41
2022/03/30 07:41:44;;;;;;;39.60;20.93;;;7.00;99.90;;;;;;5055127;28;20241;-42
2022/03/30 07:44:10;;;;;;;41.83;21.37;;;7.00;99.90;;;;;;5055063;28;20191;-38
2022/03/30 07:46:35;;;;;;;37.60;19.30;;;7.10;99.90;;;;;;5054615;28;20222;-41
2022/03/30 07:49:01;;;;;;;39.13;21.93;;;7.10;99.90;;;;;;5054392;28;20211;-41
2022/03/30 07:51:27;;;;;;;47.53;20.43;;;7.20;99.90;;;;;;5054890;28;20208;-41
2022/03/30 07:53:52;;;;;;;37.80;19.40;;;7.10;99.90;;;;;;5054658;28;20172;-40
2022/03/30 07:56:18;;;;;;;40.77;20.20;;;7.20;99.90;;;;;;5054624;28;20188;-39
2022/03/30 07:58:46;;;;;;;45.83;19.50;;;7.20;99.90;;;;;;5054807;28;20175;-41
2022/03/30 08:01:11;;;;;;;46.20;21.70;;;7.30;99.90;;;;;;5053586;28;20182;-41
2022/03/30 08:03:37;;;;;;;49.57;20.80;;;7.40;99.90;;;;;;5054741;28;20317;-39
2022/03/30 08:06:03;;;;;;;42.40;18.57;;;7.40;99.90;;;;;;5054706;28;20596;-41
2022/03/30 08:08:28;;;;;;;36.27;18.93;;;7.40;99.90;;;;;;5054575;28;20200;-40
2022/03/30 08:10:54;;;;;;;38.33;21.00;;;7.50;99.90;;;;;;5055602;28;20634;-40
2022/03/30 08:13:19;;;;;;;43.53;21.27;;;7.60;99.90;;;;;;5055840;28;20651;-41
2022/03/30 08:15:45;;;;;;;45.70;21.20;;;7.60;99.90;;;;;;5055955;28;20184;-41
2022/03/30 08:18:11;;;;;;;41.17;19.70;;;7.60;99.90;;;;;;5054481;28;20230;-41
2022/03/30 08:23:22;;;;;;;38.33;19.70;;;7.90;99.90;;;;;;5054380;28;20176;-41
2022/03/30 08:25:47;;;;;;;40.23;19.83;;;8.00;99.90;;;;;;5054248;28;20196;-42
2022/03/30 08:28:13;;;;;;;31.23;17.73;;;8.00;99.90;;;;;;5054411;28;20180;-40
2022/03/30 08:30:39;;;;;;;39.47;19.20;;;8.10;99.90;;;;;;5053954;28;20181;-41
2022/03/30 08:33:05;;;;;;;31.87;17.30;;;8.10;99.90;;;;;;5053769;28;20240;-41
2022/03/30 08:35:32;;;;;;;32.07;18.03;;;8.20;99.90;;;;;;5053806;28;20233;-41
2022/03/30 08:37:58;;;;;;;32.23;16.20;;;8.20;99.90;;;;;;5053799;28;20661;-39
2022/03/30 08:40:23;;;;;;;36.23;18.33;;;8.20;99.90;;;;;;5054027;28;20324;-40
2022/03/30 08:42:51;;;;;;;33.70;17.03;;;8.20;99.90;;;;;;5053721;28;20251;-40
2022/03/30 08:45:17;;;;;;;35.57;18.50;;;8.30;99.90;;;;;;5053532;28;20215;-39
2022/03/30 08:47:43;;;;;;;33.40;16.07;;;8.40;99.90;;;;;;5052464;28;20546;-38
2022/03/30 08:50:09;;;;;;;38.37;16.97;;;8.50;99.90;;;;;;5053641;28;20268;-40
2022/03/30 08:52:35;;;;;;;29.63;17.23;;;8.50;99.90;;;;;;5053600;28;20196;-39
2022/03/30 08:55:01;;;;;;;28.93;16.47;;;8.60;99.90;;;;;;5053420;28;20184;-42
2022/03/30 08:57:27;;;;;;;36.13;16.77;;;8.70;99.90;;;;;;5053467;28;20177;-41
2022/03/30 08:59:59;;;;;;;32.73;16.53;;;8.80;99.90;;;;;;5052753;28;20181;-39
2022/03/30 09:02:42;;;;;;;27.90;16.37;;;8.80;99.90;;;;;;5053653;28;20176;-40
2022/03/30 09:05:14;;;;;;;28.77;16.93;;;8.90;99.90;;;;;;5053582;28;20180;-41
2022/03/30 09:07:42;;;;;;;35.10;17.27;;;9.10;99.90;;;;;;5053312;28;20172;-40
2022/03/30 09:10:19;;;;;;;31.57;16.50;;;9.20;99.90;;;;;;5053496;28;20203;-40
2022/03/30 09:12:52;;;;;;;31.50;14.97;;;9.20;99.90;;;;;;5053757;28;20202;-42
2022/03/30 09:15:20;;;;;;;31.37;17.17;;;9.30;99.90;;;;;;5051986;28;20601;-42
2022/03/30 09:17:47;;;;;;;38.23;17.17;;;9.50;99.90;;;;;;5053486;28;20185;-41
2022/03/30 09:20:22;;;;;;;32.20;15.50;;;9.60;99.90;;;;;;5053148;28;20182;-41
2022/03/30 09:22:51;;;;;;;26.57;14.40;;;9.70;99.90;;;;;;5053502;28;20166;-41
2022/03/30 09:25:17;;;;;;;31.97;15.23;;;9.90;99.90;;;;;;5053049;28;20194;-38
2022/03/30 09:27:45;;;;;;;22.73;12.70;;;9.80;99.90;;;;;;5053105;28;20657;-39
2022/03/30 09:30:16;;;;;;;22.00;13.50;;;9.80;99.90;;;;;;5053023;28;20185;-39
2022/03/30 09:32:45;;;;;;;30.77;12.47;;;9.70;99.90;;;;;;5052970;28;20195;-43
2022/03/30 09:35:24;;;;;;;23.37;13.70;;;9.80;99.90;;;;;;5052963;28;20173;-40
2022/03/30 09:38:03;;;;;;;27.73;14.50;;;9.80;99.90;;;;;;5052029;28;20581;-39
2022/03/30 09:40:51;;;;;;;28.00;14.90;;;9.90;99.90;;;;;;5053042;28;20178;-41
2022/03/30 09:43:16;;;;;;;26.40;14.33;;;10.10;99.90;;;;;;5052932;28;20171;-43
2022/03/30 09:45:43;;;;;;;28.37;13.60;;;10.20;99.90;;;;;;5052701;28;20715;-40
2022/03/30 09:48:23;;;;;;;21.97;13.63;;;10.20;99.90;;;;;;5053179;28;20187;-40
2022/03/30 09:50:52;;;;;;;24.23;13.83;;;10.10;99.90;;;;;;5053126;28;20621;-39
2022/03/30 09:53:20;;;;;;;29.23;15.13;;;10.00;99.90;;;;;;5052708;28;20204;-43
2022/03/30 09:56:00;;;;;;;22.67;12.33;;;10.10;99.90;;;;;;5053030;28;20195;-40
2022/03/30 09:58:31;;;;;;;24.77;14.40;;;10.20;99.90;;;;;;5053358;28;20164;-41
2022/03/30 10:01:13;;;;;;;25.33;15.20;;;10.30;99.90;;;;;;5053042;28;20622;-40
2022/03/30 10:04:00;;;;;;;23.73;12.73;;;10.50;99.90;;;;;;5053063;28;20205;-41
2022/03/30 10:06:40;;;;;;;21.00;12.73;;;10.70;99.90;;;;;;5052722;28;20199;-41
2022/03/30 10:09:06;;;;;;;21.67;12.03;;;10.80;99.90;;;;;;5053098;28;20164;-41
2022/03/30 10:11:32;;;;;;;28.37;14.80;;;10.90;99.90;;;;;;5054172;28;20204;-39
2022/03/30 10:14:05;;;;;;;21.33;13.53;;;11.00;99.90;;;;;;5056544;28;20176;-40
2022/03/30 10:16:30;;;;;;;24.50;14.00;;;10.90;99.90;;;;;;5056492;28;20188;-40
2022/03/30 10:18:56;;;;;;;25.27;13.60;;;10.90;99.90;;;;;;5056422;28;20227;-41
2022/03/30 10:21:49;;;;;;;19.97;12.50;;;10.90;99.90;;;;;;5055205;28;20271;-41
2022/03/30 10:24:28;;;;;;;28.73;14.17;;;11.00;99.90;;;;;;5056565;28;20180;-40
2022/03/30 10:27:12;;;;;;;20.20;13.53;;;10.90;99.90;;;;;;5056234;28;20199;-42
2022/03/30 10:29:46;;;;;;;24.67;12.63;;;10.80;99.90;;;;;;5056506;28;20668;-39
2022/03/30 10:32:19;;;;;;;23.93;12.93;;;10.80;99.90;;;;;;5056181;28;20669;-42
2022/03/30 10:34:56;;;;;;;23.17;13.47;;;10.80;99.90;;;;;;5056460;28;20627;-40
2022/03/30 10:37:30;;;;;;;21.27;12.67;;;11.00;99.90;;;;;;5056427;28;20211;-41
2022/03/30 10:40:05;;;;;;;25.60;13.57;;;11.10;99.90;;;;;;5056413;28;20587;-41
2022/03/30 10:42:46;;;;;;;26.77;14.30;;;11.10;99.90;;;;;;5056008;28;20198;-41
2022/03/30 10:45:41;;;;;;;24.73;14.37;;;11.30;99.90;;;;;;5056004;28;20279;-41
2022/03/30 10:48:20;;;;;;;24.70;13.13;;;11.30;99.90;;;;;;5056173;28;20192;-42
2022/03/30 10:50:51;;;;;;;24.00;14.30;;;11.60;99.90;;;;;;5056181;28;20168;-42
2022/03/30 10:56:24;;;;;;;24.00;14.47;;;11.80;99.90;;;;;;5055757;28;20568;-40
2022/03/30 10:58:53;;;;;;;31.07;13.30;;;11.70;99.90;;;;;;5055158;28;20558;-41
2022/03/30 11:01:25;;;;;;;21.67;12.87;;;11.90;99.90;;;;;;5056051;28;20176;-42
2022/03/30 11:03:58;;;;;;;25.80;13.47;;;12.00;99.90;;;;;;5055734;28;20630;-42
2022/03/30 11:06:24;;;;;;;25.20;14.10;;;12.00;99.90;;;;;;5055877;28;20196;-41
2022/03/30 11:08:51;;;;;;;21.53;13.00;;;12.10;99.90;;;;;;5055563;28;20165;-42
2022/03/30 11:11:35;;;;;;;23.93;13.73;;;12.20;99.90;;;;;;5055385;28;20172;-39
2022/03/30 11:14:23;;;;;;;20.43;12.47;;;12.30;99.90;;;;;;5055762;28;20164;-41
2022/03/30 11:16:50;;;;;;;23.27;13.27;;;12.40;99.90;;;;;;5055616;28;20196;-41
2022/03/30 11:19:17;;;;;;;21.70;13.30;;;12.40;99.90;;;;;;5055324;28;20211;-41
2022/03/30 11:22:14;;;;;;;22.77;13.03;;;12.50;99.90;;;;;;5055260;28;20181;-42
2022/03/30 11:24:44;;;;;;;21.73;13.27;;;12.60;99.90;;;;;;5053579;28;20691;-40
2022/03/30 11:27:10;;;;;;;20.20;13.23;;;12.60;99.90;;;;;;5055452;28;20196;-41
2022/03/30 11:29:41;;;;;;;23.13;12.77;;;12.50;99.90;;;;;;5055203;28;20318;-40
2022/03/30 11:32:19;;;;;;;16.83;11.10;;;12.30;99.90;;;;;;5054953;28;20673;-40
2022/03/30 11:34:55;;;;;;;24.47;12.60;;;12.30;99.90;;;;;;5055314;28;20172;-39
2022/03/30 11:37:32;;;;;;;20.17;12.43;;;12.50;99.90;;;;;;5055244;28;20164;-41
2022/03/30 11:40:04;;;;;;;20.40;13.07;;;12.80;99.90;;;;;;5055245;28;20610;-41
2022/03/30 11:42:31;;;;;;;19.37;12.13;;;12.90;99.90;;;;;;5055195;28;20176;-40
2022/03/30 11:45:12;;;;;;;14.20;10.03;;;12.90;99.90;;;;;;5054853;28;20176;-41
2022/03/30 11:47:46;;;;;;;19.30;12.30;;;12.80;99.90;;;;;;5055120;28;20671;-41
2022/03/30 11:50:14;;;;;;;16.07;10.87;;;12.70;99.90;;;;;;5054704;28;20641;-41
2022/03/30 11:52:40;;;;;;;18.47;10.80;;;12.60;99.90;;;;;;5054719;28;20207;-38
2022/03/30 11:55:07;;;;;;;18.00;10.97;;;12.70;99.90;;;;;;5054914;28;20203;-40
2022/03/30 11:57:42;;;;;;;18.73;11.60;;;12.70;99.90;;;;;;5054813;28;20234;-39
2022/03/30 12:00:09;;;;;;;20.53;12.07;;;12.70;99.90;;;;;;5055074;28;20168;-39
2022/03/30 12:02:37;;;;;;;19.00;11.53;;;12.80;99.90;;;;;;5054739;28;20242;-39
2022/03/30 12:05:04;;;;;;;15.90;11.10;;;12.90;99.90;;;;;;5054358;28;20263;-42
2022/03/30 12:07:34;;;;;;;19.40;11.80;;;13.00;99.90;;;;;;5054362;28;20234;-41
2022/03/30 12:10:00;;;;;;;18.57;11.30;;;13.10;99.90;;;;;;5054387;28;20161;-41
2022/03/30 12:12:35;;;;;;;17.13;10.77;;;13.10;99.90;;;;;;5054226;28;20287;-39
2022/03/30 12:15:08;;;;;;;21.10;11.00;;;13.10;99.90;;;;;;5054520;28;20202;-41
2022/03/30 12:17:35;;;;;;;23.57;11.93;;;13.20;99.90;;;;;;5054287;28;20259;-41
2022/03/30 12:20:03;;;;;;;14.17;10.13;;;13.10;99.90;;;;;;5054148;28;20172;-40
2022/03/30 12:22:29;;;;;;;17.53;12.17;;;13.20;99.90;;;;;;5054297;28;20188;-42
2022/03/30 12:24:56;;;;;;;15.23;9.80;;;13.30;99.90;;;;;;5053971;28;20176;-41
2022/03/30 12:27:22;;;;;;;15.57;11.00;;;13.50;99.90;;;;;;5054589;28;20177;-40
2022/03/30 12:29:48;;;;;;;17.43;11.23;;;13.50;99.90;;;;;;5054270;28;20176;-40
2022/03/30 12:32:15;;;;;;;18.80;10.13;;;13.50;99.90;;;;;;5053859;28;20200;-40
2022/03/30 12:34:43;;;;;;;15.13;9.97;;;13.50;99.90;;;;;;5053055;28;20249;-41
2022/03/30 12:37:11;;;;;;;16.13;10.47;;;13.50;99.90;;;;;;5054032;28;20211;-40
2022/03/30 12:39:44;;;;;;;16.93;10.40;;;13.50;99.90;;;;;;5054389;28;20298;-41
2022/03/30 12:42:21;;;;;;;18.10;11.73;;;13.50;99.90;;;;;;5054014;28;20545;-40
2022/03/30 12:44:48;;;;;;;19.40;12.07;;;13.60;99.90;;;;;;5053879;28;20160;-41
2022/03/30 12:47:25;;;;;;;18.23;11.20;;;13.60;99.90;;;;;;5053850;28;20253;-40
2022/03/30 12:49:53;;;;;;;16.33;12.07;;;13.60;99.90;;;;;;5053916;28;20221;-41
2022/03/30 12:52:20;;;;;;;18.40;11.27;;;13.70;99.90;;;;;;5053567;28;20569;-40
2022/03/30 12:54:47;;;;;;;20.43;12.07;;;13.70;99.90;;;;;;5053524;28;20169;-41
2022/03/30 12:57:25;;;;;;;17.40;11.63;;;13.80;99.90;;;;;;5053484;28;20551;-39